ノーフォーク島 の空港の天気 - METARとTAF

ノーフォーク島空港 ( YSNF / NLK ) - ノーフォーク島 ノーフォーク島
飛行場実況気象(Metar)
観測時間09/26 07:00 NFT (09/25 20:00 UTC)
風向・風速北東 8m/s
視程10km以上
天気現象
全天の4割程度の雲 雲底高度 400m
気温19℃
湿度83%
気圧1016hPa
METARYSNF 252000Z AUTO 05016KT 9999 // SCT013 19/16 Q1016 RF00.0/000.0
過去の天気等 Google飛行場航空写真 Wunderground天気予報

過去48時間のMETAR

飛行場予報(TAF)
発表時間: 9/26 04:08 NFT (9/25 17:08 UTC)
予報対象時間: 26日5時 NFT ~ 27日5時 NFT
風向・風速北東 5m/s
視程10km以上
全天の8割程度の雲 雲底高度 370m
26日8時 NFT から
風向・風速北東 6m/s
視程10km以上
少しの雲 雲底高度 460m
全天の8割程度の雲 雲底高度 760m
26日20時 NFT から
風向・風速東北東 4m/s
視程10km以上
全天の8割程度の雲 雲底高度 370m
TAF YSNF 251708Z 2518/2618 05010KT 9999 BKN012
FM252100 04012KT 9999 FEW015 BKN025
FM260900 06008KT 9999 BKN012